Latest Weather Observations for Wyndham Airport

IDW60801

Issued at 2:33 pm WST Saturday 10 December 2022 (issued every 10 minutes, with the page automatically refreshed every 10 minutes)

About weather observations | Map of weather stations | Latest weather observations for WA | Other Formats
Station Details ID: 001006 Name: WYNDHAM AERO Lat: -15.51 Lon: 128.15 Height: 3.8 m
Data from the previous 72 hours. | See also: Recent months at Wyndham Airport
Date/Time
WST
Temp
°C
App
Temp
°C
Dew
Point
°C
Rel
Hum
%
Delta-T
°C
Wind Press
QNH
hPa
Press
MSL
hPa
Rain since
9am
mm
Dir  Spd
km/h
Gust
km/h
Spd
kts
Gust
kts
10/02:30pm 39.8 39.8 21.0 34 12.9 NNW 22 32 12 17 1003.5 1003.5 0.0
10/02:03pm 40.4 40.9 20.0 30 13.8 N 17 28 9 15 1003.8 1003.8 0.0
10/02:00pm 41.2 42.0 20.7 30 14.0 N 17 28 9 15 1003.8 1003.8 0.0
10/01:53pm 40.7 41.2 20.8 32 13.6 N 19 33 10 18 1003.8 1003.8 0.0
10/01:30pm 42.2 41.8 21.0 29 14.6 N 24 35 13 19 1004.0 1004.0 0.0
10/01:00pm 41.4 42.7 20.8 30 14.1 NNE 15 32 8 17 1004.2 1004.2 0.0
10/12:30pm 41.9 41.5 19.0 26 15.3 N 19 28 10 15 1004.6 1004.6 0.0
10/12:00pm 41.9 42.2 19.6 27 15.1 NNE 17 24 9 13 1005.1 1005.1 0.0
10/11:30am 40.7 42.2 19.7 29 14.2 S 11 17 6 9 1005.4 1005.4 0.0
10/11:00am 40.7 41.8 19.7 29 14.2 SSE 13 19 7 10 1005.8 1005.8 0.0
10/10:30am 39.5 41.4 19.7 31 13.3 S 9 17 5 9 1006.2 1006.2 0.0
10/10:00am 39.1 41.9 20.8 34 12.5 W 7 13 4 7 1006.5 1006.5 0.0
10/09:30am 38.5 40.9 21.6 37 11.6 WSW 11 17 6 9 1006.7 1006.7 0.0
10/09:00am 37.1 40.4 23.2 45 9.7 W 11 17 6 9 1006.9 1006.9 0.0
10/08:30am 36.1 40.1 23.7 49 8.7 WNW 9 15 5 8 1007.1 1007.1 0.0
10/08:00am 35.0 38.0 22.7 49 8.5 W 11 15 6 8 1007.2 1007.2 0.0
10/07:30am 34.1 37.5 24.1 56 7.0 SW 13 17 7 9 1007.0 1007.0 0.0
10/07:00am 33.2 36.4 24.9 61 5.9 SW 17 22 9 12 1006.9 1006.9 0.0
10/06:30am 31.9 35.1 25.5 69 4.5 SW 19 24 10 13 1006.5 1006.5 0.0
10/06:00am 31.5 36.2 25.6 71 4.2 W 11 13 6 7 1006.8 1006.8 0.0
10/05:30am 31.1 36.0 24.7 68 4.5 NW 7 9 4 5 1007.1 1007.1 0.0
10/05:00am 30.4 34.7 25.5 75 3.5 NNE 13 20 7 11 1007.0 1007.0 0.0
10/04:30am 30.3 34.2 24.2 70 4.2 SE 11 15 6 8 1006.6 1006.6 0.0
10/04:00am 30.6 33.8 24.3 69 4.4 N 15 22 8 12 1006.3 1006.3 0.0
10/03:30am 30.3 36.2 26.7 81 2.6 N 9 11 5 6 1005.8 1005.8 0.0
10/03:00am 30.3 36.4 26.5 80 2.7 N 7 9 4 5 1005.3 1005.3 0.0
10/02:30am 30.5 36.2 26.4 79 2.9 NNE 9 19 5 10 1005.4 1005.4 0.0
10/02:00am 30.3 35.1 26.2 79 2.9 ENE 13 15 7 8 1005.4 1005.4 0.0
10/01:30am 30.8 34.4 25.6 74 3.7 E 17 22 9 12 1005.5 1005.5 0.0
10/01:00am 30.7 37.2 27.1 81 2.6 WSW 7 9 4 5 1004.9 1004.9 0.0
10/12:30am 30.9 35.5 25.3 72 4.0 SW 11 15 6 8 1004.6 1004.6 0.0
10/12:00am 31.1 36.2 26.1 75 3.6 SSE 11 13 6 7 1005.0 1005.0 0.0
 
Date/Time
WST
Temp
°C
App
Temp
°C
Dew
Point
°C
Rel
Hum
%
Delta-T
°C
Wind Press
QNH
hPa
Press
MSL
hPa
Rain since
9am
mm
Dir  Spd
km/h
Gust
km/h
Spd
kts
Gust
kts
09/11:30pm 31.4 36.3 25.3 70 4.3 ESE 9 17 5 9 1005.4 1005.4 0.0
09/11:00pm 31.6 37.4 25.2 69 4.5 E 4 9 2 5 1005.3 1005.3 0.0
09/10:30pm 31.9 38.0 25.0 67 4.9 E 2 7 1 4 1005.5 1005.5 0.0
09/10:00pm 32.2 36.5 24.3 63 5.5 ENE 9 13 5 7 1005.9 1005.9 0.0
09/09:30pm 32.1 36.0 23.6 60 5.9 NNE 9 11 5 6 1005.8 1005.8 0.0
09/09:00pm 32.3 35.4 24.1 62 5.7 N 15 20 8 11 1005.5 1005.5 0.0
09/08:30pm 32.7 34.9 23.9 60 6.1 NNE 19 30 10 16 1005.6 1005.6 0.0
09/08:00pm 32.9 36.9 23.8 58 6.4 N 9 13 5 7 1005.2 1005.2 0.0
09/07:30pm 33.0 34.8 21.2 50 8.0 N 13 22 7 12 1004.9 1004.9 0.0
09/07:05pm 31.8 32.6 20.7 51 7.4 ENE 17 24 9 13 1005.5 1005.5 0.0
09/07:00pm 31.8 31.4 21.0 52 7.3 ESE 24 35 13 19 1005.5 1005.5 0.0
09/06:53pm 31.8 29.2 20.7 51 7.4 SE 35 48 19 26 1005.6 1005.6 0.0
09/06:44pm 34.5 32.2 20.1 42 9.6 E 32 44 17 24 1005.6 1005.6 0.0
09/06:33pm 34.6 35.6 24.8 56 6.9 E 28 48 15 26 1005.1 1005.1 0.0
09/06:30pm 35.0 37.0 24.0 53 7.7 E 20 39 11 21 1004.5 1004.5 0.0
09/06:28pm 35.1 38.4 23.8 52 7.9 ENE 13 35 7 19 1004.2 1004.2 0.0
09/06:00pm 35.4 35.7 24.3 52 7.8 NE 30 43 16 23 1003.3 1003.3 0.0
09/05:30pm 36.2 36.6 24.4 50 8.3 NNE 30 43 16 23 1002.2 1002.2 0.0
09/05:19pm 37.8 38.2 23.8 44 9.9 NNE 28 52 15 28 1001.9 1001.9 0.0
09/05:00pm 39.7 40.0 20.4 32 13.1 NNE 19 24 10 13 1001.4 1001.4 0.0
09/04:30pm 39.7 38.2 19.4 30 13.6 NE 26 41 14 22 1001.4 1001.4 0.0
09/04:23pm 39.5 38.7 19.2 30 13.6 NE 22 41 12 22 1001.5 1001.5 0.0
09/04:00pm 42.0 42.3 17.9 24 16.0 ENE 13 19 7 10 1001.0 1001.0 0.0
09/03:30pm 42.8 42.4 17.2 22 16.8 ESE 15 26 8 14 1001.3 1001.3 0.0
09/03:00pm 42.7 42.3 17.2 23 16.8 ESE 15 28 8 15 1001.5 1001.5 0.0
09/02:30pm 42.8 42.8 17.2 22 16.8 E 13 24 7 13 1001.6 1001.6 0.0
09/02:00pm 43.5 43.0 17.8 22 17.1 SE 17 35 9 19 1002.1 1002.1 0.0
09/01:30pm 41.4 42.6 19.8 29 14.6 NE 13 22 7 12 1002.6 1002.6 0.0
09/01:00pm 41.3 42.5 19.1 27 14.9 S 11 17 6 9 1002.9 1002.9 0.0
09/12:30pm 41.4 43.6 20.3 29 14.4 WSW 9 17 5 9 1003.5 1003.5 0.0
09/12:00pm 41.1 43.2 20.1 30 14.3 W 9 17 5 9 1004.0 1004.0 0.0
09/11:30am 40.3 42.4 20.9 32 13.3 SSW 11 20 6 11 1004.5 1004.5 0.0
09/11:00am 38.7 41.1 20.9 35 12.1 W 9 15 5 8 1005.2 1005.2 0.0
09/10:30am 38.5 40.9 21.6 37 11.6 W 11 15 6 8 1005.8 1005.8 0.0
09/10:00am 37.2 39.5 21.3 39 10.9 SW 11 19 6 10 1006.2 1006.2 0.0
09/09:30am 36.4 39.1 21.4 41 10.2 W 9 13 5 7 1006.6 1006.6 0.0
09/09:00am 36.1 38.9 21.5 42 10.0 WNW 9 15 5 8 1006.9 1006.9 0.0
09/08:30am 35.0 38.0 21.3 45 9.3 WSW 7 13 4 7 1007.2 1007.2 0.0
09/08:00am 34.4 37.3 21.8 48 8.6 W 9 13 5 7 1007.2 1007.2 0.0
09/07:30am 33.8 35.8 21.6 49 8.3 WSW 13 17 7 9 1007.2 1007.2 0.0
09/07:00am 33.1 35.9 21.6 51 7.8 WNW 9 13 5 7 1007.2 1007.2 0.0
09/06:30am 32.6 34.4 21.8 53 7.3 WNW 15 17 8 9 1007.1 1007.1 0.0
09/06:00am 31.5 34.4 22.5 59 6.2 W 11 13 6 7 1006.9 1006.9 0.0
09/05:30am 30.6 34.2 23.0 64 5.2 W 9 11 5 6 1006.8 1006.8 0.0
09/05:00am 29.9 32.6 22.9 66 4.8 WSW 13 13 7 7 1006.6 1006.6 0.0
09/04:30am 29.6 33.3 23.3 69 4.3 WSW 9 11 5 6 1006.2 1006.2 0.0
09/04:00am 30.1 33.9 23.5 67 4.6 NW 9 11 5 6 1005.8 1005.8 0.0
09/03:30am 30.2 32.9 22.9 65 5.0 NW 13 17 7 9 1005.5 1005.5 0.0
09/03:00am 29.4 32.6 23.1 69 4.3 NNW 11 13 6 7 1005.5 1005.5 0.0
09/02:30am 29.5 33.3 23.4 69 4.2 W 9 11 5 6 1005.3 1005.3 0.0
09/02:00am 30.3 34.5 23.5 67 4.7 W 7 9 4 5 1005.3 1005.3 0.0
09/01:30am 30.1 33.9 23.5 67 4.6 W 9 11 5 6 1005.3 1005.3 0.0
09/01:00am 30.2 33.7 23.6 67 4.6 W 11 13 6 7 1005.2 1005.2 0.0
09/12:30am 30.7 33.9 22.3 61 5.7 NW 9 11 5 6 1005.4 1005.4 0.0
09/12:00am 30.5 32.5 21.6 59 6.0 NNW 13 13 7 7 1005.6 1005.6 0.0
 
Date/Time
WST
Temp
°C
App
Temp
°C
Dew
Point
°C
Rel
Hum
%
Delta-T
°C
Wind Press
QNH
hPa
Press
MSL
hPa
Rain since
9am
mm
Dir  Spd
km/h
Gust
km/h
Spd
kts
Gust
kts
08/11:30pm 30.4 33.3 21.8 60 5.8 NNW 9 11 5 6 1005.8 1005.8 0.0
08/11:00pm 30.7 34.0 21.8 59 6.0 NNW 7 9 4 5 1006.1 1006.1 0.0
08/10:30pm 31.3 34.6 21.8 57 6.4 NNW 7 11 4 6 1006.4 1006.4 0.0
08/10:00pm 31.8 33.7 21.3 53 7.1 NNW 13 15 7 8 1006.5 1006.5 0.0
08/09:30pm 32.2 36.6 21.4 53 7.3 CALM 0 4 0 2 1006.4 1006.4 0.0
08/09:00pm 32.2 35.2 22.0 55 6.9 NNW 9 13 5 7 1006.3 1006.3 0.0
08/08:30pm 32.6 35.1 21.1 50 7.7 N 9 13 5 7 1006.0 1006.0 0.0
08/08:00pm 32.7 35.3 21.2 50 7.8 N 9 15 5 8 1005.7 1005.7 0.0
08/07:30pm 32.9 34.1 21.4 50 7.8 N 17 24 9 13 1005.4 1005.4 0.0
08/07:00pm 32.9 32.7 22.0 52 7.4 N 26 33 14 18 1004.9 1004.9 0.0
08/06:30pm 32.9 33.7 23.2 56 6.7 N 24 39 13 21 1004.6 1004.6 0.0
08/06:00pm 33.4 32.9 22.8 53 7.3 N 30 39 16 21 1004.3 1004.3 0.0
08/05:30pm 34.6 34.2 21.6 46 8.8 N 26 39 14 21 1004.0 1004.0 0.0
08/05:00pm 35.9 35.2 21.0 42 10.1 N 26 35 14 19 1003.8 1003.8 0.0
08/04:30pm 36.8 35.9 21.4 41 10.5 N 28 37 15 20 1003.5 1003.5 0.0
08/04:00pm 37.5 39.0 21.2 38 11.1 N 15 28 8 15 1003.3 1003.3 0.0
08/03:30pm 40.0 41.7 18.6 29 14.2 E 7 13 4 7 1003.2 1003.2 0.0
08/03:00pm 39.4 39.8 18.1 29 14.1 NE 13 17 7 9 1003.4 1003.4 0.0
08/02:30pm 38.8 38.6 17.5 28 13.9 NNE 15 26 8 14 1003.6 1003.6 0.0
08/02:00pm 39.1 40.0 18.3 29 13.8 SSW 11 17 6 9 1004.0 1004.0 0.0
08/01:30pm 39.3 40.8 19.0 30 13.5 NW 9 24 5 13 1004.3 1004.3 0.0
08/01:00pm 38.6 39.6 19.4 32 12.9 NNW 13 20 7 11 1004.9 1004.9 0.0
08/12:30pm 38.2 39.4 19.1 32 12.7 S 11 20 6 11 1005.5 1005.5 0.0
08/12:00pm 37.8 39.3 19.7 34 12.1 WNW 11 17 6 9 1005.9 1005.9 0.0
08/11:30am 37.3 38.6 19.3 35 12.0 NNE 11 19 6 10 1006.3 1006.3 0.0
08/11:00am 36.9 38.0 18.9 34 11.9 NW 11 20 6 11 1006.8 1006.8 0.0
08/10:30am 36.5 37.8 19.4 36 11.4 WNW 11 20 6 11 1007.2 1007.2 0.0
08/10:00am 35.9 37.8 19.8 39 10.8 W 9 15 5 8 1007.7 1007.7 0.0
08/09:30am 35.1 37.8 20.6 42 9.7 WNW 7 13 4 7 1008.1 1008.1 0.0
08/09:00am 34.5 37.5 21.2 46 9.0 WNW 7 17 4 9 1008.4 1008.4 0.0
08/08:30am 33.5 35.4 20.6 46 8.6 WNW 11 17 6 9 1008.7 1008.7 0.0
08/08:00am 33.0 35.4 21.5 50 7.8 WNW 11 17 6 9 1008.6 1008.6 0.0
08/07:30am 32.5 34.6 21.0 50 7.7 WNW 11 15 6 8 1008.6 1008.6 0.0
08/07:00am 32.0 35.4 22.7 58 6.4 NW 9 13 5 7 1008.7 1008.7 0.0
08/06:30am 31.1 34.3 23.0 62 5.6 NNW 11 13 6 7 1008.5 1008.5 0.0
08/06:00am 30.3 33.8 23.5 67 4.7 NNW 11 15 6 8 1008.3 1008.3 0.0
08/05:30am 29.0 33.3 23.7 73 3.7 N 7 9 4 5 1008.0 1008.0 0.0
08/05:00am 27.4 32.7 23.0 77 3.0 CALM 0 0 0 0 1007.4 1007.4 0.0
08/04:30am 27.7 32.1 23.5 78 2.9 N 6 7 3 4 1006.8 1006.8 0.0
08/04:00am 28.0 32.0 22.7 73 3.6 N 6 7 3 4 1006.3 1006.3 0.0
08/03:30am 28.0 31.4 22.7 73 3.6 N 9 11 5 6 1005.9 1005.9 0.0
08/03:00am 27.9 31.4 22.8 74 3.5 NNW 9 11 5 6 1005.7 1005.7 0.0
08/02:30am 28.7 31.8 22.9 71 4.0 NNW 11 11 6 6 1005.4 1005.4 0.0
08/02:00am 28.9 32.2 22.6 69 4.3 NNW 9 11 5 6 1005.7 1005.7 0.0
08/01:30am 29.5 32.9 22.7 67 4.6 W 9 13 5 7 1005.6 1005.6 0.0
08/01:00am 29.7 34.4 24.3 73 3.8 WSW 7 11 4 6 1005.7 1005.7 0.0
08/12:30am 29.1 34.9 25.7 82 2.4 S 6 7 3 4 1005.7 1005.7 0.0
08/12:00am 29.2 34.5 25.0 78 3.0 S 6 7 3 4 1005.8 1005.8 0.0
 
Date/Time
WST
Temp
°C
App
Temp
°C
Dew
Point
°C
Rel
Hum
%
Delta-T
°C
Wind Press
QNH
hPa
Press
MSL
hPa
Rain since
9am
mm
Dir  Spd
km/h
Gust
km/h
Spd
kts
Gust
kts
07/11:30pm 29.6 36.1 25.1 77 3.2 CALM 0 0 0 0 1006.1 1006.1 0.0
07/11:00pm 30.0 36.2 24.6 73 3.8 CALM 0 0 0 0 1006.4 1006.4 0.0
07/10:30pm 30.1 35.1 24.5 72 3.9 NNE 6 11 3 6 1006.4 1006.4 0.0
07/10:00pm 30.6 35.3 24.3 69 4.4 NE 7 15 4 8 1006.6 1006.6 0.0
07/09:30pm 30.7 35.9 24.8 71 4.1 NNE 6 15 3 8 1006.7 1006.7 0.0
07/09:00pm 30.6 35.8 23.5 66 4.9 N 2 7 1 4 1006.6 1006.6 0.0
07/08:30pm 31.1 35.4 23.7 64 5.1 N 7 11 4 6 1006.5 1006.5 0.0
07/08:00pm 31.4 35.6 23.2 61 5.7 SSE 6 7 3 4 1006.3 1006.3 0.0
07/07:30pm 31.8 35.8 23.1 60 6.0 NNE 7 11 4 6 1006.0 1006.0 0.0
07/07:00pm 32.0 33.3 22.4 57 6.6 N 19 26 10 14 1005.6 1005.6 0.0
07/06:30pm 32.8 33.8 22.9 56 6.8 N 22 32 12 17 1005.4 1005.4 0.0
07/06:00pm 33.9 33.4 19.9 43 9.3 N 22 30 12 16 1005.0 1005.0 0.0
07/05:30pm 35.4 34.1 16.7 33 11.9 NNE 19 24 10 13 1004.5 1004.5 0.0
07/05:00pm 36.5 35.3 16.1 29 13.0 NNE 17 28 9 15 1004.2 1004.2 0.0
07/04:30pm 37.1 36.5 17.6 31 12.7 N 17 24 9 13 1004.1 1004.1 0.0
07/04:00pm 37.1 35.6 17.6 31 12.7 NNW 22 30 12 16 1003.9 1003.9 0.0
07/03:30pm 37.5 36.1 17.0 30 13.2 NNW 20 28 11 15 1003.9 1003.9 0.0
07/03:00pm 38.6 36.6 17.4 29 13.8 NNW 24 35 13 19 1003.9 1003.9 0.0

Other formats

Comma delimited format used in spreadsheet applications
http://www.bom.gov.au/fwo/IDW60801/IDW60801.95214.axf

JavaScript Object Notation format (JSON) in row-major order
http://www.bom.gov.au/fwo/IDW60801/IDW60801.95214.json

Data quality

Most of these data are generated automatically and are frequently updated. Quality checks on data are not normally performed. It is possible for incorrect values to appear. Refer to information at About Latest Weather Observations and please check the disclaimer before using these data.